sensor_id;sensor_type;location;lat;lon;timestamp;P1;durP1;ratioP1;P2;durP2;ratioP2
4452;SDS011;2239;48.152;11.584;2023-06-22T00:00:47;2.40;;;1.67;;
4452;SDS011;2239;48.152;11.584;2023-06-22T00:03:13;5.87;;;1.53;;
4452;SDS011;2239;48.152;11.584;2023-06-22T00:05:39;4.17;;;1.47;;
4452;SDS011;2239;48.152;11.584;2023-06-22T00:08:04;3.07;;;1.50;;
4452;SDS011;2239;48.152;11.584;2023-06-22T00:10:30;4.23;;;1.40;;
4452;SDS011;2239;48.152;11.584;2023-06-22T00:12:56;3.47;;;1.70;;
4452;SDS011;2239;48.152;11.584;2023-06-22T00:15:22;4.10;;;1.37;;
4452;SDS011;2239;48.152;11.584;2023-06-22T00:17:47;6.87;;;1.40;;
4452;SDS011;2239;48.152;11.584;2023-06-22T00:20:13;4.60;;;1.27;;
4452;SDS011;2239;48.152;11.584;2023-06-22T00:22:39;5.83;;;1.57;;
4452;SDS011;2239;48.152;11.584;2023-06-22T00:25:06;3.30;;;1.70;;
4452;SDS011;2239;48.152;11.584;2023-06-22T00:27:32;3.00;;;1.40;;
4452;SDS011;2239;48.152;11.584;2023-06-22T00:29:57;2.70;;;1.50;;
4452;SDS011;2239;48.152;11.584;2023-06-22T00:32:23;1.80;;;1.20;;
4452;SDS011;2239;48.152;11.584;2023-06-22T00:34:49;2.93;;;1.50;;
4452;SDS011;2239;48.152;11.584;2023-06-22T00:37:15;3.70;;;1.90;;
4452;SDS011;2239;48.152;11.584;2023-06-22T00:39:42;1.77;;;1.47;;
4452;SDS011;2239;48.152;11.584;2023-06-22T00:42:08;3.47;;;1.73;;
4452;SDS011;2239;48.152;11.584;2023-06-22T00:44:34;2.73;;;2.00;;
4452;SDS011;2239;48.152;11.584;2023-06-22T00:47:00;3.20;;;1.33;;
4452;SDS011;2239;48.152;11.584;2023-06-22T00:49:26;6.00;;;1.70;;
4452;SDS011;2239;48.152;11.584;2023-06-22T00:51:52;3.80;;;1.70;;
4452;SDS011;2239;48.152;11.584;2023-06-22T00:54:18;3.20;;;1.67;;
4452;SDS011;2239;48.152;11.584;2023-06-22T00:56:49;2.50;;;1.53;;
4452;SDS011;2239;48.152;11.584;2023-06-22T00:59:17;2.47;;;1.40;;
4452;SDS011;2239;48.152;11.584;2023-06-22T01:01:43;2.90;;;1.43;;
4452;SDS011;2239;48.152;11.584;2023-06-22T01:04:09;4.80;;;2.00;;
4452;SDS011;2239;48.152;11.584;2023-06-22T01:06:38;4.47;;;1.63;;
4452;SDS011;2239;48.152;11.584;2023-06-22T01:09:20;2.07;;;1.60;;
4452;SDS011;2239;48.152;11.584;2023-06-22T01:11:56;2.40;;;1.40;;
4452;SDS011;2239;48.152;11.584;2023-06-22T01:14:29;3.40;;;1.87;;
4452;SDS011;2239;48.152;11.584;2023-06-22T01:17:05;3.17;;;1.40;;
4452;SDS011;2239;48.152;11.584;2023-06-22T01:19:43;6.80;;;2.80;;
4452;SDS011;2239;48.152;11.584;2023-06-22T01:22:20;6.73;;;2.63;;
4452;SDS011;2239;48.152;11.584;2023-06-22T01:27:32;2.77;;;1.60;;
4452;SDS011;2239;48.152;11.584;2023-06-22T01:29:58;3.40;;;2.00;;
4452;SDS011;2239;48.152;11.584;2023-06-22T01:32:28;5.73;;;1.63;;
4452;SDS011;2239;48.152;11.584;2023-06-22T01:34:57;1.87;;;1.30;;
4452;SDS011;2239;48.152;11.584;2023-06-22T01:37:24;3.60;;;1.70;;
4452;SDS011;2239;48.152;11.584;2023-06-22T01:39:50;2.60;;;1.43;;
4452;SDS011;2239;48.152;11.584;2023-06-22T01:42:17;2.70;;;1.40;;
4452;SDS011;2239;48.152;11.584;2023-06-22T01:44:43;3.87;;;1.50;;
4452;SDS011;2239;48.152;11.584;2023-06-22T01:47:09;3.93;;;1.70;;
4452;SDS011;2239;48.152;11.584;2023-06-22T01:49:35;1.30;;;1.20;;
4452;SDS011;2239;48.152;11.584;2023-06-22T01:52:01;2.23;;;1.20;;
4452;SDS011;2239;48.152;11.584;2023-06-22T01:54:28;3.03;;;1.37;;
4452;SDS011;2239;48.152;11.584;2023-06-22T01:56:54;2.53;;;1.43;;
4452;SDS011;2239;48.152;11.584;2023-06-22T02:01:58;3.23;;;1.67;;
4452;SDS011;2239;48.152;11.584;2023-06-22T02:04:55;2.60;;;1.27;;
4452;SDS011;2239;48.152;11.584;2023-06-22T02:07:24;4.00;;;1.60;;
4452;SDS011;2239;48.152;11.584;2023-06-22T02:09:57;2.10;;;0.97;;
4452;SDS011;2239;48.152;11.584;2023-06-22T02:12:24;3.60;;;1.67;;
4452;SDS011;2239;48.152;11.584;2023-06-22T02:14:52;2.87;;;1.50;;
4452;SDS011;2239;48.152;11.584;2023-06-22T02:17:18;8.30;;;1.73;;
4452;SDS011;2239;48.152;11.584;2023-06-22T02:19:44;4.77;;;1.60;;
4452;SDS011;2239;48.152;11.584;2023-06-22T02:22:09;3.07;;;1.80;;
4452;SDS011;2239;48.152;11.584;2023-06-22T02:24:35;5.23;;;1.70;;
4452;SDS011;2239;48.152;11.584;2023-06-22T02:27:01;1.80;;;1.47;;
4452;SDS011;2239;48.152;11.584;2023-06-22T02:29:27;3.00;;;1.77;;
4452;SDS011;2239;48.152;11.584;2023-06-22T02:31:53;3.63;;;1.63;;
4452;SDS011;2239;48.152;11.584;2023-06-22T02:34:20;5.40;;;1.43;;
4452;SDS011;2239;48.152;11.584;2023-06-22T02:36:47;3.40;;;1.80;;
4452;SDS011;2239;48.152;11.584;2023-06-22T02:39:18;2.90;;;1.53;;
4452;SDS011;2239;48.152;11.584;2023-06-22T02:41:44;5.23;;;1.53;;
4452;SDS011;2239;48.152;11.584;2023-06-22T02:44:10;5.77;;;2.10;;
4452;SDS011;2239;48.152;11.584;2023-06-22T02:46:36;3.57;;;1.77;;
4452;SDS011;2239;48.152;11.584;2023-06-22T02:49:01;5.13;;;2.10;;
4452;SDS011;2239;48.152;11.584;2023-06-22T02:51:27;1.90;;;1.37;;
4452;SDS011;2239;48.152;11.584;2023-06-22T02:53:52;5.53;;;2.10;;
4452;SDS011;2239;48.152;11.584;2023-06-22T02:56:22;5.80;;;2.50;;
4452;SDS011;2239;48.152;11.584;2023-06-22T02:58:50;3.47;;;2.03;;
4452;SDS011;2239;48.152;11.584;2023-06-22T03:01:16;2.30;;;1.50;;
4452;SDS011;2239;48.152;11.584;2023-06-22T03:03:41;4.93;;;2.07;;
4452;SDS011;2239;48.152;11.584;2023-06-22T03:06:07;3.73;;;1.70;;
4452;SDS011;2239;48.152;11.584;2023-06-22T03:08:32;3.30;;;1.40;;
4452;SDS011;2239;48.152;11.584;2023-06-22T03:10:58;2.93;;;1.77;;
4452;SDS011;2239;48.152;11.584;2023-06-22T03:13:23;3.50;;;2.30;;
4452;SDS011;2239;48.152;11.584;2023-06-22T03:15:49;2.93;;;1.90;;
4452;SDS011;2239;48.152;11.584;2023-06-22T03:18:15;3.80;;;1.80;;
4452;SDS011;2239;48.152;11.584;2023-06-22T03:20:40;4.43;;;1.80;;
4452;SDS011;2239;48.152;11.584;2023-06-22T03:23:06;3.50;;;1.93;;
4452;SDS011;2239;48.152;11.584;2023-06-22T03:25:32;4.83;;;2.10;;
4452;SDS011;2239;48.152;11.584;2023-06-22T03:27:58;3.77;;;1.40;;
4452;SDS011;2239;48.152;11.584;2023-06-22T03:30:25;5.17;;;2.17;;
4452;SDS011;2239;48.152;11.584;2023-06-22T03:32:51;3.70;;;1.90;;
4452;SDS011;2239;48.152;11.584;2023-06-22T03:35:16;4.87;;;2.03;;
4452;SDS011;2239;48.152;11.584;2023-06-22T03:37:42;4.00;;;1.60;;
4452;SDS011;2239;48.152;11.584;2023-06-22T03:40:08;4.90;;;2.23;;
4452;SDS011;2239;48.152;11.584;2023-06-22T03:42:34;3.93;;;2.13;;
4452;SDS011;2239;48.152;11.584;2023-06-22T03:45:03;2.50;;;1.50;;
4452;SDS011;2239;48.152;11.584;2023-06-22T03:47:29;3.70;;;2.00;;
4452;SDS011;2239;48.152;11.584;2023-06-22T03:49:55;2.93;;;1.57;;
4452;SDS011;2239;48.152;11.584;2023-06-22T03:52:21;6.20;;;2.07;;
4452;SDS011;2239;48.152;11.584;2023-06-22T03:54:47;5.23;;;1.70;;
4452;SDS011;2239;48.152;11.584;2023-06-22T03:57:13;4.40;;;1.83;;
4452;SDS011;2239;48.152;11.584;2023-06-22T03:59:38;3.03;;;1.87;;
4452;SDS011;2239;48.152;11.584;2023-06-22T04:02:04;3.90;;;1.83;;
4452;SDS011;2239;48.152;11.584;2023-06-22T04:04:29;4.30;;;1.80;;
4452;SDS011;2239;48.152;11.584;2023-06-22T04:06:55;7.37;;;2.90;;
4452;SDS011;2239;48.152;11.584;2023-06-22T04:09:20;3.53;;;1.87;;
4452;SDS011;2239;48.152;11.584;2023-06-22T04:11:46;7.53;;;2.70;;
4452;SDS011;2239;48.152;11.584;2023-06-22T04:14:12;6.13;;;2.13;;
4452;SDS011;2239;48.152;11.584;2023-06-22T04:16:38;3.53;;;1.73;;
4452;SDS011;2239;48.152;11.584;2023-06-22T04:19:03;3.03;;;2.07;;
4452;SDS011;2239;48.152;11.584;2023-06-22T04:21:29;5.43;;;2.27;;
4452;SDS011;2239;48.152;11.584;2023-06-22T04:23:54;3.93;;;1.87;;
4452;SDS011;2239;48.152;11.584;2023-06-22T04:26:20;4.83;;;2.30;;
4452;SDS011;2239;48.152;11.584;2023-06-22T04:28:46;4.73;;;2.13;;
4452;SDS011;2239;48.152;11.584;2023-06-22T04:31:16;4.27;;;2.57;;
4452;SDS011;2239;48.152;11.584;2023-06-22T04:33:43;4.67;;;1.93;;
4452;SDS011;2239;48.152;11.584;2023-06-22T04:36:08;4.40;;;2.17;;
4452;SDS011;2239;48.152;11.584;2023-06-22T04:38:34;4.13;;;2.50;;
4452;SDS011;2239;48.152;11.584;2023-06-22T04:40:59;4.07;;;1.70;;
4452;SDS011;2239;48.152;11.584;2023-06-22T04:43:28;4.93;;;2.23;;
4452;SDS011;2239;48.152;11.584;2023-06-22T04:45:55;3.47;;;2.10;;
4452;SDS011;2239;48.152;11.584;2023-06-22T04:48:28;8.33;;;1.80;;
4452;SDS011;2239;48.152;11.584;2023-06-22T04:50:57;3.40;;;2.03;;
4452;SDS011;2239;48.152;11.584;2023-06-22T04:53:27;5.53;;;1.80;;
4452;SDS011;2239;48.152;11.584;2023-06-22T04:55:54;4.83;;;2.20;;
4452;SDS011;2239;48.152;11.584;2023-06-22T04:58:20;2.43;;;1.70;;
4452;SDS011;2239;48.152;11.584;2023-06-22T05:00:46;5.80;;;2.43;;
4452;SDS011;2239;48.152;11.584;2023-06-22T05:03:12;4.27;;;2.67;;
4452;SDS011;2239;48.152;11.584;2023-06-22T05:05:37;4.67;;;2.27;;
4452;SDS011;2239;48.152;11.584;2023-06-22T05:08:03;2.83;;;2.10;;
4452;SDS011;2239;48.152;11.584;2023-06-22T05:10:31;5.70;;;2.13;;
4452;SDS011;2239;48.152;11.584;2023-06-22T05:12:57;5.80;;;2.13;;
4452;SDS011;2239;48.152;11.584;2023-06-22T05:15:23;5.20;;;1.80;;
4452;SDS011;2239;48.152;11.584;2023-06-22T05:17:53;5.20;;;2.13;;
4452;SDS011;2239;48.152;11.584;2023-06-22T05:20:18;7.40;;;2.40;;
4452;SDS011;2239;48.152;11.584;2023-06-22T05:22:44;3.30;;;1.97;;
4452;SDS011;2239;48.152;11.584;2023-06-22T05:25:10;5.37;;;3.33;;
4452;SDS011;2239;48.152;11.584;2023-06-22T05:27:36;7.20;;;2.40;;
4452;SDS011;2239;48.152;11.584;2023-06-22T05:30:06;4.20;;;2.30;;
4452;SDS011;2239;48.152;11.584;2023-06-22T05:32:32;8.17;;;2.53;;
4452;SDS011;2239;48.152;11.584;2023-06-22T05:34:58;2.90;;;1.70;;
4452;SDS011;2239;48.152;11.584;2023-06-22T05:37:24;7.27;;;2.17;;
4452;SDS011;2239;48.152;11.584;2023-06-22T05:39:50;5.53;;;2.07;;
4452;SDS011;2239;48.152;11.584;2023-06-22T05:42:15;5.83;;;2.80;;
4452;SDS011;2239;48.152;11.584;2023-06-22T05:44:41;5.00;;;2.60;;
4452;SDS011;2239;48.152;11.584;2023-06-22T05:47:06;6.97;;;2.77;;
4452;SDS011;2239;48.152;11.584;2023-06-22T05:49:32;5.63;;;2.67;;
4452;SDS011;2239;48.152;11.584;2023-06-22T05:51:58;6.10;;;2.97;;
4452;SDS011;2239;48.152;11.584;2023-06-22T05:54:24;2.90;;;2.47;;
4452;SDS011;2239;48.152;11.584;2023-06-22T05:56:50;5.33;;;2.43;;
4452;SDS011;2239;48.152;11.584;2023-06-22T05:59:16;7.83;;;2.87;;
4452;SDS011;2239;48.152;11.584;2023-06-22T06:01:42;4.97;;;2.47;;
4452;SDS011;2239;48.152;11.584;2023-06-22T06:04:07;5.10;;;3.30;;
4452;SDS011;2239;48.152;11.584;2023-06-22T06:06:33;4.80;;;2.27;;
4452;SDS011;2239;48.152;11.584;2023-06-22T06:09:02;5.87;;;2.20;;
4452;SDS011;2239;48.152;11.584;2023-06-22T06:11:28;7.43;;;2.93;;
4452;SDS011;2239;48.152;11.584;2023-06-22T06:13:54;8.97;;;2.90;;
4452;SDS011;2239;48.152;11.584;2023-06-22T06:16:20;6.23;;;2.87;;
4452;SDS011;2239;48.152;11.584;2023-06-22T06:18:45;5.40;;;3.00;;
4452;SDS011;2239;48.152;11.584;2023-06-22T06:21:11;9.17;;;3.80;;
4452;SDS011;2239;48.152;11.584;2023-06-22T06:23:36;5.00;;;2.27;;
4452;SDS011;2239;48.152;11.584;2023-06-22T06:26:02;9.27;;;3.17;;
4452;SDS011;2239;48.152;11.584;2023-06-22T06:28:32;4.90;;;2.77;;
4452;SDS011;2239;48.152;11.584;2023-06-22T06:30:58;6.07;;;3.20;;
4452;SDS011;2239;48.152;11.584;2023-06-22T06:33:23;7.67;;;3.23;;
4452;SDS011;2239;48.152;11.584;2023-06-22T06:35:49;7.90;;;2.70;;
4452;SDS011;2239;48.152;11.584;2023-06-22T06:38:15;6.33;;;2.93;;
4452;SDS011;2239;48.152;11.584;2023-06-22T06:40:40;6.00;;;2.90;;
4452;SDS011;2239;48.152;11.584;2023-06-22T06:43:06;5.17;;;2.67;;
4452;SDS011;2239;48.152;11.584;2023-06-22T06:45:31;13.73;;;2.63;;
4452;SDS011;2239;48.152;11.584;2023-06-22T06:47:59;5.57;;;2.27;;
4452;SDS011;2239;48.152;11.584;2023-06-22T06:50:25;6.00;;;2.83;;
4452;SDS011;2239;48.152;11.584;2023-06-22T06:52:51;7.53;;;2.63;;
4452;SDS011;2239;48.152;11.584;2023-06-22T06:55:16;5.60;;;2.67;;
4452;SDS011;2239;48.152;11.584;2023-06-22T06:57:44;8.30;;;2.70;;
4452;SDS011;2239;48.152;11.584;2023-06-22T07:00:13;3.50;;;2.47;;
4452;SDS011;2239;48.152;11.584;2023-06-22T07:02:40;7.77;;;3.27;;
4452;SDS011;2239;48.152;11.584;2023-06-22T07:05:07;9.57;;;3.70;;
4452;SDS011;2239;48.152;11.584;2023-06-22T07:07:34;8.50;;;3.40;;
4452;SDS011;2239;48.152;11.584;2023-06-22T07:09:59;6.23;;;3.23;;
4452;SDS011;2239;48.152;11.584;2023-06-22T07:12:25;6.23;;;3.37;;
4452;SDS011;2239;48.152;11.584;2023-06-22T07:14:52;9.23;;;3.10;;
4452;SDS011;2239;48.152;11.584;2023-06-22T07:17:18;9.40;;;4.00;;
4452;SDS011;2239;48.152;11.584;2023-06-22T07:19:44;6.50;;;3.33;;
4452;SDS011;2239;48.152;11.584;2023-06-22T07:22:10;4.70;;;2.53;;
4452;SDS011;2239;48.152;11.584;2023-06-22T07:24:35;6.50;;;3.37;;
4452;SDS011;2239;48.152;11.584;2023-06-22T07:27:02;5.30;;;3.07;;
4452;SDS011;2239;48.152;11.584;2023-06-22T07:29:28;5.13;;;2.63;;
4452;SDS011;2239;48.152;11.584;2023-06-22T07:31:54;7.80;;;3.33;;
4452;SDS011;2239;48.152;11.584;2023-06-22T07:34:21;7.27;;;3.40;;
4452;SDS011;2239;48.152;11.584;2023-06-22T07:36:47;6.57;;;3.57;;
4452;SDS011;2239;48.152;11.584;2023-06-22T07:39:13;10.37;;;3.33;;
4452;SDS011;2239;48.152;11.584;2023-06-22T07:41:39;5.00;;;2.90;;
4452;SDS011;2239;48.152;11.584;2023-06-22T07:44:08;5.53;;;3.63;;
4452;SDS011;2239;48.152;11.584;2023-06-22T07:46:34;9.47;;;3.33;;
4452;SDS011;2239;48.152;11.584;2023-06-22T07:48:59;8.30;;;4.07;;
4452;SDS011;2239;48.152;11.584;2023-06-22T07:51:26;7.00;;;3.17;;
4452;SDS011;2239;48.152;11.584;2023-06-22T07:53:51;7.43;;;3.60;;
4452;SDS011;2239;48.152;11.584;2023-06-22T07:56:17;5.63;;;3.23;;
4452;SDS011;2239;48.152;11.584;2023-06-22T07:58:46;9.27;;;3.40;;
4452;SDS011;2239;48.152;11.584;2023-06-22T08:01:13;7.23;;;3.80;;
4452;SDS011;2239;48.152;11.584;2023-06-22T08:03:40;5.63;;;3.50;;
4452;SDS011;2239;48.152;11.584;2023-06-22T08:06:06;6.57;;;3.63;;
4452;SDS011;2239;48.152;11.584;2023-06-22T08:08:34;12.10;;;3.20;;
4452;SDS011;2239;48.152;11.584;2023-06-22T08:11:00;7.60;;;2.93;;
4452;SDS011;2239;48.152;11.584;2023-06-22T08:13:26;6.50;;;3.60;;
4452;SDS011;2239;48.152;11.584;2023-06-22T08:15:51;6.67;;;3.53;;
4452;SDS011;2239;48.152;11.584;2023-06-22T08:18:17;8.60;;;3.40;;
4452;SDS011;2239;48.152;11.584;2023-06-22T08:20:42;7.17;;;3.77;;
4452;SDS011;2239;48.152;11.584;2023-06-22T08:23:08;6.03;;;2.87;;
4452;SDS011;2239;48.152;11.584;2023-06-22T08:25:34;6.37;;;3.17;;
4452;SDS011;2239;48.152;11.584;2023-06-22T08:28:00;9.87;;;3.57;;
4452;SDS011;2239;48.152;11.584;2023-06-22T08:30:26;8.13;;;3.47;;
4452;SDS011;2239;48.152;11.584;2023-06-22T08:32:52;8.03;;;3.47;;
4452;SDS011;2239;48.152;11.584;2023-06-22T08:35:18;8.27;;;3.80;;
4452;SDS011;2239;48.152;11.584;2023-06-22T08:37:44;6.83;;;3.43;;
4452;SDS011;2239;48.152;11.584;2023-06-22T08:40:20;8.03;;;3.23;;
4452;SDS011;2239;48.152;11.584;2023-06-22T08:42:46;6.27;;;3.77;;
4452;SDS011;2239;48.152;11.584;2023-06-22T08:45:13;6.43;;;3.13;;
4452;SDS011;2239;48.152;11.584;2023-06-22T08:47:39;9.73;;;3.70;;
4452;SDS011;2239;48.152;11.584;2023-06-22T08:50:06;7.57;;;3.47;;
4452;SDS011;2239;48.152;11.584;2023-06-22T08:52:33;5.40;;;3.00;;
4452;SDS011;2239;48.152;11.584;2023-06-22T08:54:59;7.90;;;4.10;;
4452;SDS011;2239;48.152;11.584;2023-06-22T08:57:25;7.80;;;3.33;;
4452;SDS011;2239;48.152;11.584;2023-06-22T08:59:51;6.00;;;3.73;;
4452;SDS011;2239;48.152;11.584;2023-06-22T09:02:18;7.23;;;3.37;;
4452;SDS011;2239;48.152;11.584;2023-06-22T09:04:45;8.33;;;3.10;;
4452;SDS011;2239;48.152;11.584;2023-06-22T09:07:11;8.17;;;4.00;;
4452;SDS011;2239;48.152;11.584;2023-06-22T09:09:36;13.30;;;3.93;;
4452;SDS011;2239;48.152;11.584;2023-06-22T09:12:02;9.80;;;4.60;;
4452;SDS011;2239;48.152;11.584;2023-06-22T09:14:28;5.67;;;3.43;;
4452;SDS011;2239;48.152;11.584;2023-06-22T09:16:53;8.83;;;3.90;;
4452;SDS011;2239;48.152;11.584;2023-06-22T09:19:19;6.03;;;3.60;;
4452;SDS011;2239;48.152;11.584;2023-06-22T09:21:44;7.20;;;3.80;;
4452;SDS011;2239;48.152;11.584;2023-06-22T09:24:10;7.90;;;3.50;;
4452;SDS011;2239;48.152;11.584;2023-06-22T09:26:36;5.93;;;3.30;;
4452;SDS011;2239;48.152;11.584;2023-06-22T09:29:01;7.97;;;3.80;;
4452;SDS011;2239;48.152;11.584;2023-06-22T09:31:30;15.37;;;4.50;;
4452;SDS011;2239;48.152;11.584;2023-06-22T09:33:56;7.20;;;3.43;;
4452;SDS011;2239;48.152;11.584;2023-06-22T09:36:21;5.40;;;3.20;;
4452;SDS011;2239;48.152;11.584;2023-06-22T09:38:47;5.27;;;3.20;;
4452;SDS011;2239;48.152;11.584;2023-06-22T09:41:13;9.57;;;3.60;;
4452;SDS011;2239;48.152;11.584;2023-06-22T09:43:39;11.80;;;3.40;;
4452;SDS011;2239;48.152;11.584;2023-06-22T09:46:04;6.40;;;3.40;;
4452;SDS011;2239;48.152;11.584;2023-06-22T09:48:32;6.90;;;3.50;;
4452;SDS011;2239;48.152;11.584;2023-06-22T09:50:57;7.80;;;3.30;;
4452;SDS011;2239;48.152;11.584;2023-06-22T09:53:23;6.73;;;3.80;;
4452;SDS011;2239;48.152;11.584;2023-06-22T09:55:48;6.30;;;3.40;;
4452;SDS011;2239;48.152;11.584;2023-06-22T09:58:14;11.03;;;4.30;;
4452;SDS011;2239;48.152;11.584;2023-06-22T10:00:39;4.23;;;2.93;;
4452;SDS011;2239;48.152;11.584;2023-06-22T10:03:06;6.60;;;3.50;;
4452;SDS011;2239;48.152;11.584;2023-06-22T10:05:32;6.30;;;3.40;;
4452;SDS011;2239;48.152;11.584;2023-06-22T10:07:57;6.07;;;3.13;;
4452;SDS011;2239;48.152;11.584;2023-06-22T10:10:23;11.30;;;4.10;;
4452;SDS011;2239;48.152;11.584;2023-06-22T10:12:54;6.30;;;3.60;;
4452;SDS011;2239;48.152;11.584;2023-06-22T10:15:21;6.57;;;3.63;;
4452;SDS011;2239;48.152;11.584;2023-06-22T10:17:47;11.83;;;3.50;;
4452;SDS011;2239;48.152;11.584;2023-06-22T10:20:13;6.57;;;3.57;;
4452;SDS011;2239;48.152;11.584;2023-06-22T10:22:39;7.30;;;3.47;;
4452;SDS011;2239;48.152;11.584;2023-06-22T10:25:06;5.90;;;3.33;;
4452;SDS011;2239;48.152;11.584;2023-06-22T10:27:34;7.70;;;4.33;;
4452;SDS011;2239;48.152;11.584;2023-06-22T10:30:00;10.00;;;3.80;;
4452;SDS011;2239;48.152;11.584;2023-06-22T10:32:25;7.33;;;3.90;;
4452;SDS011;2239;48.152;11.584;2023-06-22T10:34:53;9.13;;;4.00;;
4452;SDS011;2239;48.152;11.584;2023-06-22T10:37:19;7.87;;;4.03;;
4452;SDS011;2239;48.152;11.584;2023-06-22T10:39:44;7.63;;;4.17;;
4452;SDS011;2239;48.152;11.584;2023-06-22T10:42:11;8.40;;;4.13;;
4452;SDS011;2239;48.152;11.584;2023-06-22T10:44:37;10.40;;;3.90;;
4452;SDS011;2239;48.152;11.584;2023-06-22T10:47:03;17.23;;;4.50;;
4452;SDS011;2239;48.152;11.584;2023-06-22T10:49:29;6.00;;;3.57;;
4452;SDS011;2239;48.152;11.584;2023-06-22T10:51:55;6.27;;;3.53;;
4452;SDS011;2239;48.152;11.584;2023-06-22T10:54:20;6.47;;;3.23;;
4452;SDS011;2239;48.152;11.584;2023-06-22T10:56:46;9.20;;;3.57;;
4452;SDS011;2239;48.152;11.584;2023-06-22T10:59:11;8.33;;;3.90;;
4452;SDS011;2239;48.152;11.584;2023-06-22T11:01:37;6.23;;;3.40;;
4452;SDS011;2239;48.152;11.584;2023-06-22T11:04:03;4.60;;;3.37;;
4452;SDS011;2239;48.152;11.584;2023-06-22T11:06:28;11.43;;;3.80;;
4452;SDS011;2239;48.152;11.584;2023-06-22T11:08:54;7.77;;;3.30;;
4452;SDS011;2239;48.152;11.584;2023-06-22T11:11:19;6.00;;;3.30;;
4452;SDS011;2239;48.152;11.584;2023-06-22T11:13:45;9.60;;;3.50;;
4452;SDS011;2239;48.152;11.584;2023-06-22T11:16:11;7.13;;;3.57;;
4452;SDS011;2239;48.152;11.584;2023-06-22T11:18:36;8.33;;;3.53;;
4452;SDS011;2239;48.152;11.584;2023-06-22T11:21:02;5.83;;;2.93;;
4452;SDS011;2239;48.152;11.584;2023-06-22T11:23:27;7.10;;;3.47;;
4452;SDS011;2239;48.152;11.584;2023-06-22T11:25:56;5.70;;;2.90;;
4452;SDS011;2239;48.152;11.584;2023-06-22T11:28:22;7.80;;;3.27;;
4452;SDS011;2239;48.152;11.584;2023-06-22T11:30:48;6.90;;;3.40;;
4452;SDS011;2239;48.152;11.584;2023-06-22T11:33:14;7.27;;;3.47;;
4452;SDS011;2239;48.152;11.584;2023-06-22T11:35:40;5.20;;;3.10;;
4452;SDS011;2239;48.152;11.584;2023-06-22T11:38:05;5.10;;;3.30;;
4452;SDS011;2239;48.152;11.584;2023-06-22T11:40:31;9.30;;;3.10;;
4452;SDS011;2239;48.152;11.584;2023-06-22T11:42:56;7.10;;;3.50;;
4452;SDS011;2239;48.152;11.584;2023-06-22T11:45:22;10.13;;;4.50;;
4452;SDS011;2239;48.152;11.584;2023-06-22T11:47:47;5.07;;;3.37;;
4452;SDS011;2239;48.152;11.584;2023-06-22T11:50:13;7.37;;;3.80;;
4452;SDS011;2239;48.152;11.584;2023-06-22T11:52:39;6.80;;;4.20;;
4452;SDS011;2239;48.152;11.584;2023-06-22T11:55:05;7.57;;;3.80;;
4452;SDS011;2239;48.152;11.584;2023-06-22T11:57:35;8.00;;;3.40;;
4452;SDS011;2239;48.152;11.584;2023-06-22T12:00:05;5.40;;;3.10;;
4452;SDS011;2239;48.152;11.584;2023-06-22T12:02:35;7.03;;;4.23;;
4452;SDS011;2239;48.152;11.584;2023-06-22T12:05:01;7.90;;;3.43;;
4452;SDS011;2239;48.152;11.584;2023-06-22T12:07:29;10.83;;;3.70;;
4452;SDS011;2239;48.152;11.584;2023-06-22T12:09:55;7.77;;;3.20;;
4452;SDS011;2239;48.152;11.584;2023-06-22T12:12:21;7.70;;;4.23;;
4452;SDS011;2239;48.152;11.584;2023-06-22T12:14:47;5.47;;;3.43;;
4452;SDS011;2239;48.152;11.584;2023-06-22T12:17:12;5.57;;;3.47;;
4452;SDS011;2239;48.152;11.584;2023-06-22T12:19:38;6.40;;;4.00;;
4452;SDS011;2239;48.152;11.584;2023-06-22T12:22:03;9.50;;;3.47;;
4452;SDS011;2239;48.152;11.584;2023-06-22T12:24:29;6.37;;;3.40;;
4452;SDS011;2239;48.152;11.584;2023-06-22T12:26:54;10.13;;;3.50;;
4452;SDS011;2239;48.152;11.584;2023-06-22T12:29:20;8.90;;;3.87;;
4452;SDS011;2239;48.152;11.584;2023-06-22T12:31:45;6.93;;;3.93;;
4452;SDS011;2239;48.152;11.584;2023-06-22T12:34:11;8.67;;;3.50;;
4452;SDS011;2239;48.152;11.584;2023-06-22T12:36:37;5.33;;;3.30;;
4452;SDS011;2239;48.152;11.584;2023-06-22T12:39:02;8.93;;;3.77;;
4452;SDS011;2239;48.152;11.584;2023-06-22T12:41:28;7.87;;;3.50;;
4452;SDS011;2239;48.152;11.584;2023-06-22T12:43:53;6.40;;;3.63;;
4452;SDS011;2239;48.152;11.584;2023-06-22T12:46:19;6.60;;;3.27;;
4452;SDS011;2239;48.152;11.584;2023-06-22T12:48:44;6.57;;;3.47;;
4452;SDS011;2239;48.152;11.584;2023-06-22T12:51:10;6.00;;;3.47;;
4452;SDS011;2239;48.152;11.584;2023-06-22T12:53:36;7.37;;;3.17;;
4452;SDS011;2239;48.152;11.584;2023-06-22T12:56:01;5.33;;;3.33;;
4452;SDS011;2239;48.152;11.584;2023-06-22T12:58:27;11.30;;;3.23;;
4452;SDS011;2239;48.152;11.584;2023-06-22T13:00:52;6.33;;;3.40;;
4452;SDS011;2239;48.152;11.584;2023-06-22T13:03:18;9.33;;;3.60;;
4452;SDS011;2239;48.152;11.584;2023-06-22T13:05:44;4.37;;;3.00;;
4452;SDS011;2239;48.152;11.584;2023-06-22T13:08:09;7.03;;;3.10;;
4452;SDS011;2239;48.152;11.584;2023-06-22T13:10:36;6.57;;;3.47;;
4452;SDS011;2239;48.152;11.584;2023-06-22T13:13:01;5.97;;;3.30;;
4452;SDS011;2239;48.152;11.584;2023-06-22T13:15:27;7.83;;;3.33;;
4452;SDS011;2239;48.152;11.584;2023-06-22T13:17:53;6.73;;;2.97;;
4452;SDS011;2239;48.152;11.584;2023-06-22T13:20:19;6.90;;;3.50;;
4452;SDS011;2239;48.152;11.584;2023-06-22T13:22:45;7.00;;;3.30;;
4452;SDS011;2239;48.152;11.584;2023-06-22T13:25:11;7.00;;;3.70;;
4452;SDS011;2239;48.152;11.584;2023-06-22T13:27:37;8.80;;;4.07;;
4452;SDS011;2239;48.152;11.584;2023-06-22T13:30:04;9.60;;;4.13;;
4452;SDS011;2239;48.152;11.584;2023-06-22T13:32:30;6.40;;;3.63;;
4452;SDS011;2239;48.152;11.584;2023-06-22T13:34:56;7.20;;;3.10;;
4452;SDS011;2239;48.152;11.584;2023-06-22T13:37:23;4.70;;;3.20;;
4452;SDS011;2239;48.152;11.584;2023-06-22T13:39:48;6.13;;;3.50;;
4452;SDS011;2239;48.152;11.584;2023-06-22T13:42:14;11.47;;;3.10;;
4452;SDS011;2239;48.152;11.584;2023-06-22T13:44:39;4.27;;;3.00;;
4452;SDS011;2239;48.152;11.584;2023-06-22T13:47:05;5.67;;;3.33;;
4452;SDS011;2239;48.152;11.584;2023-06-22T13:49:31;8.00;;;3.30;;
4452;SDS011;2239;48.152;11.584;2023-06-22T13:51:57;5.83;;;3.20;;
4452;SDS011;2239;48.152;11.584;2023-06-22T13:54:22;9.73;;;3.33;;
4452;SDS011;2239;48.152;11.584;2023-06-22T13:56:48;9.70;;;4.03;;
4452;SDS011;2239;48.152;11.584;2023-06-22T13:59:14;6.37;;;3.40;;
4452;SDS011;2239;48.152;11.584;2023-06-22T14:01:39;16.53;;;3.90;;
4452;SDS011;2239;48.152;11.584;2023-06-22T14:04:06;3.03;;;2.60;;
4452;SDS011;2239;48.152;11.584;2023-06-22T14:06:31;7.93;;;3.27;;
4452;SDS011;2239;48.152;11.584;2023-06-22T14:08:57;5.90;;;3.40;;
4452;SDS011;2239;48.152;11.584;2023-06-22T14:11:24;6.20;;;3.00;;
4452;SDS011;2239;48.152;11.584;2023-06-22T14:13:50;11.80;;;3.70;;
4452;SDS011;2239;48.152;11.584;2023-06-22T14:16:16;5.30;;;3.30;;
4452;SDS011;2239;48.152;11.584;2023-06-22T14:18:42;9.83;;;3.60;;
4452;SDS011;2239;48.152;11.584;2023-06-22T14:21:07;9.60;;;3.67;;
4452;SDS011;2239;48.152;11.584;2023-06-22T14:23:33;6.50;;;3.07;;
4452;SDS011;2239;48.152;11.584;2023-06-22T14:25:59;7.23;;;3.40;;
4452;SDS011;2239;48.152;11.584;2023-06-22T14:28:24;4.07;;;2.70;;
4452;SDS011;2239;48.152;11.584;2023-06-22T14:30:50;5.73;;;3.40;;
4452;SDS011;2239;48.152;11.584;2023-06-22T14:33:15;8.20;;;3.43;;
4452;SDS011;2239;48.152;11.584;2023-06-22T14:35:41;5.40;;;2.90;;
4452;SDS011;2239;48.152;11.584;2023-06-22T14:38:06;6.87;;;3.60;;
4452;SDS011;2239;48.152;11.584;2023-06-22T14:40:32;6.90;;;3.10;;
4452;SDS011;2239;48.152;11.584;2023-06-22T14:42:58;7.63;;;2.93;;
4452;SDS011;2239;48.152;11.584;2023-06-22T14:45:23;6.63;;;3.57;;
4452;SDS011;2239;48.152;11.584;2023-06-22T14:47:49;5.90;;;3.20;;
4452;SDS011;2239;48.152;11.584;2023-06-22T14:50:15;5.20;;;2.87;;
4452;SDS011;2239;48.152;11.584;2023-06-22T14:52:41;5.83;;;3.33;;
4452;SDS011;2239;48.152;11.584;2023-06-22T14:55:07;6.67;;;3.30;;
4452;SDS011;2239;48.152;11.584;2023-06-22T14:57:33;6.30;;;3.20;;
4452;SDS011;2239;48.152;11.584;2023-06-22T14:59:58;7.70;;;3.00;;